createdAt,value
2023-03-11T00:00:49.627Z,13.48
2023-03-11T00:03:19.217Z,12.02
2023-03-11T00:05:47.355Z,14.18
2023-03-11T00:08:16.249Z,12.73
2023-03-11T00:10:45.070Z,11.85
2023-03-11T00:13:15.533Z,12.43
2023-03-11T00:15:43.527Z,12.68
2023-03-11T00:18:11.540Z,12.75
2023-03-11T00:20:40.239Z,12.23
2023-03-11T00:23:08.909Z,12.32
2023-03-11T00:25:37.538Z,12.10
2023-03-11T00:28:07.152Z,13.20
2023-03-11T00:30:37.147Z,11.93
2023-03-11T00:33:05.062Z,11.57
2023-03-11T00:35:34.137Z,10.75
2023-03-11T00:38:02.772Z,13.10
2023-03-11T00:40:31.742Z,13.40
2023-03-11T00:42:59.743Z,12.13
2023-03-11T00:45:28.163Z,12.27
2023-03-11T00:47:57.582Z,11.25
2023-03-11T00:50:26.679Z,13.98
2023-03-11T00:52:55.140Z,11.55
2023-03-11T00:55:24.038Z,11.68
2023-03-11T00:57:53.377Z,12.18
2023-03-11T01:00:22.344Z,11.85
2023-03-11T01:02:50.236Z,12.68
2023-03-11T01:05:20.740Z,12.25
2023-03-11T01:07:48.613Z,10.95
2023-03-11T01:10:16.634Z,11.55
2023-03-11T01:12:44.552Z,12.90
2023-03-11T01:15:17.745Z,12.55
2023-03-11T01:17:45.664Z,11.45
2023-03-11T01:20:13.878Z,11.52
2023-03-11T01:22:43.080Z,12.43
2023-03-11T01:25:13.719Z,10.98
2023-03-11T01:27:41.762Z,11.43
2023-03-11T01:30:10.931Z,11.90
2023-03-11T01:32:38.948Z,11.93
2023-03-11T01:35:08.291Z,12.00
2023-03-11T01:37:36.206Z,10.70
2023-03-11T01:40:06.577Z,10.75
2023-03-11T01:42:34.467Z,11.02
2023-03-11T01:45:02.305Z,10.68
2023-03-11T01:47:38.890Z,11.95
2023-03-11T01:50:10.170Z,11.77
2023-03-11T01:52:38.132Z,11.07
2023-03-11T01:55:08.832Z,10.70
2023-03-11T01:57:37.457Z,11.80
2023-03-11T02:00:06.836Z,12.05
2023-03-11T02:02:42.671Z,12.32
2023-03-11T02:05:11.761Z,12.20
2023-03-11T02:07:41.066Z,11.20
2023-03-11T02:10:13.535Z,10.88
2023-03-11T02:12:41.504Z,10.45
2023-03-11T02:15:10.371Z,10.20
2023-03-11T02:17:38.848Z,11.32
2023-03-11T02:20:14.022Z,11.45
2023-03-11T02:22:42.581Z,9.82
2023-03-11T02:25:15.417Z,11.68
2023-03-11T02:27:47.441Z,11.15
2023-03-11T02:30:15.702Z,10.52
2023-03-11T02:32:47.175Z,10.90
2023-03-11T02:35:15.634Z,10.70
2023-03-11T02:37:47.492Z,10.23
2023-03-11T02:40:42.416Z,10.88
2023-03-11T02:43:12.744Z,10.32
2023-03-11T02:45:41.354Z,13.52
2023-03-11T02:48:10.453Z,10.25
2023-03-11T02:50:39.059Z,9.90
2023-03-11T02:53:07.548Z,11.27
2023-03-11T02:55:35.484Z,10.50
2023-03-11T02:58:03.431Z,10.55
2023-03-11T03:00:33.839Z,11.50
2023-03-11T03:03:06.000Z,9.77
2023-03-11T03:05:33.888Z,9.00
2023-03-11T03:08:03.309Z,8.75
2023-03-11T03:10:31.273Z,9.38
2023-03-11T03:12:59.430Z,10.23
2023-03-11T03:15:27.466Z,10.18
2023-03-11T03:17:56.755Z,9.85
2023-03-11T03:20:26.519Z,9.07
2023-03-11T03:22:57.656Z,10.00
2023-03-11T03:25:29.209Z,8.55
2023-03-11T03:27:59.408Z,10.05
2023-03-11T03:30:28.394Z,9.93
2023-03-11T03:32:58.401Z,9.40
2023-03-11T03:35:26.379Z,9.90
2023-03-11T03:38:04.850Z,9.50
2023-03-11T03:40:33.686Z,9.27
2023-03-11T03:43:04.824Z,9.80
2023-03-11T03:45:33.928Z,9.30
2023-03-11T03:48:03.304Z,10.88
2023-03-11T03:50:34.629Z,8.95
2023-03-11T03:53:02.697Z,9.13
2023-03-11T03:55:30.631Z,9.52
2023-03-11T03:57:59.701Z,10.85
2023-03-11T04:00:31.666Z,12.35
2023-03-11T04:03:04.451Z,11.40
2023-03-11T04:05:48.399Z,12.13
2023-03-11T04:08:16.416Z,11.13
2023-03-11T04:10:44.697Z,8.45
2023-03-11T04:13:12.778Z,7.65
2023-03-11T04:15:41.536Z,9.30
2023-03-11T04:18:10.800Z,8.60
2023-03-11T04:20:39.888Z,8.50
2023-03-11T04:23:07.839Z,7.82
2023-03-11T04:25:35.735Z,9.35
2023-03-11T04:28:04.006Z,7.82
2023-03-11T04:30:33.271Z,8.43
2023-03-11T04:33:02.080Z,8.55
2023-03-11T04:35:31.391Z,7.70
2023-03-11T04:37:59.453Z,8.48
2023-03-11T04:40:28.378Z,8.77
2023-03-11T04:42:56.379Z,7.45
2023-03-11T04:45:24.934Z,7.35
2023-03-11T04:47:56.101Z,8.23
2023-03-11T04:50:24.096Z,7.13
2023-03-11T04:52:53.599Z,8.45
2023-03-11T04:55:21.534Z,7.15
2023-03-11T04:57:49.474Z,8.45
2023-03-11T05:00:22.349Z,9.18
2023-03-11T05:02:51.932Z,9.10
2023-03-11T05:05:20.258Z,7.18
2023-03-11T05:07:48.316Z,7.32
2023-03-11T05:10:22.247Z,7.15
2023-03-11T05:12:51.929Z,7.72
2023-03-11T05:15:20.849Z,8.32
2023-03-11T05:17:49.774Z,7.65
2023-03-11T05:20:18.306Z,6.95
2023-03-11T05:22:46.202Z,7.07
2023-03-11T05:25:14.176Z,7.90
2023-03-11T05:27:43.373Z,7.25
2023-03-11T05:30:12.554Z,7.03
2023-03-11T05:32:42.773Z,8.65
2023-03-11T05:35:10.789Z,9.20
2023-03-11T05:37:39.316Z,7.18
2023-03-11T05:40:08.887Z,7.38
2023-03-11T05:42:40.173Z,7.20
2023-03-11T05:45:10.898Z,7.55
2023-03-11T05:47:42.153Z,7.72
2023-03-11T05:50:12.777Z,6.40
2023-03-11T05:52:41.901Z,6.38
2023-03-11T05:55:14.203Z,6.15
2023-03-11T05:57:45.141Z,6.95
2023-03-11T06:00:15.569Z,7.03
2023-03-11T06:02:48.039Z,7.13
2023-03-11T06:05:18.803Z,7.25
2023-03-11T06:07:48.758Z,7.25
2023-03-11T06:10:16.776Z,6.65
2023-03-11T06:12:44.706Z,6.43
2023-03-11T06:15:23.100Z,6.18
2023-03-11T06:17:51.374Z,5.95
2023-03-11T06:20:19.610Z,6.40
2023-03-11T06:22:49.390Z,6.78
2023-03-11T06:25:17.623Z,7.43
2023-03-11T06:27:50.625Z,6.07
2023-03-11T06:30:18.988Z,5.55
2023-03-11T06:32:56.349Z,5.93
2023-03-11T06:35:24.410Z,7.47
2023-03-11T06:37:52.439Z,8.25
2023-03-11T06:40:20.411Z,5.95
2023-03-11T06:42:48.440Z,6.13
2023-03-11T06:45:18.861Z,6.00
2023-03-11T06:47:48.402Z,5.85
2023-03-11T06:50:18.116Z,5.45
2023-03-11T06:52:46.009Z,5.30
2023-03-11T06:55:13.890Z,8.57
2023-03-11T06:57:42.370Z,5.35
2023-03-11T07:00:13.353Z,5.47
2023-03-11T07:02:45.106Z,6.30
2023-03-11T07:05:14.483Z,6.13
2023-03-11T07:07:43.996Z,5.47
2023-03-11T07:10:12.699Z,7.25
2023-03-11T07:12:40.785Z,5.78
2023-03-11T07:15:10.321Z,5.63
2023-03-11T07:17:38.286Z,5.30
2023-03-11T07:20:07.358Z,4.97
2023-03-11T07:22:35.246Z,8.00
2023-03-11T07:25:04.795Z,7.45
2023-03-11T07:27:32.655Z,5.22
2023-03-11T07:30:01.994Z,7.28
2023-03-11T07:32:30.011Z,5.20
2023-03-11T07:34:57.971Z,4.93
2023-03-11T07:37:25.867Z,5.00
2023-03-11T07:39:53.937Z,5.45
2023-03-11T07:42:23.141Z,4.60
2023-03-11T07:44:51.828Z,6.10
2023-03-11T07:47:19.783Z,7.70
2023-03-11T07:49:47.800Z,5.55
2023-03-11T07:52:15.745Z,4.72
2023-03-11T07:54:45.180Z,6.38
2023-03-11T07:57:17.042Z,8.65
2023-03-11T07:59:46.317Z,8.10
2023-03-11T08:02:14.378Z,5.80
2023-03-11T08:04:42.292Z,5.63
2023-03-11T08:07:10.161Z,13.10
2023-03-11T08:09:38.078Z,5.82
2023-03-11T08:12:06.529Z,7.18
2023-03-11T08:14:34.386Z,4.78
2023-03-11T08:17:03.648Z,7.07
2023-03-11T08:19:31.562Z,6.50
2023-03-11T08:21:59.427Z,4.50
2023-03-11T08:24:27.348Z,4.88
2023-03-11T08:26:55.472Z,5.13
2023-03-11T08:29:23.379Z,4.95
2023-03-11T08:31:51.284Z,3.95
2023-03-11T08:34:21.190Z,4.88
2023-03-11T08:36:49.298Z,7.78
2023-03-11T08:39:17.243Z,4.80
2023-03-11T08:41:45.127Z,6.18
2023-03-11T08:44:13.159Z,7.32
2023-03-11T08:46:41.317Z,4.03
2023-03-11T08:49:09.837Z,5.93
2023-03-11T08:51:39.138Z,7.05
2023-03-11T08:54:07.078Z,6.03
2023-03-11T08:56:34.974Z,4.22
2023-03-11T08:59:03.324Z,5.95
2023-03-11T09:01:31.198Z,5.53
2023-03-11T09:03:59.100Z,7.15
2023-03-11T09:06:27.038Z,5.10
2023-03-11T09:08:56.266Z,6.28
2023-03-11T09:11:24.411Z,5.45
2023-03-11T09:13:52.349Z,3.88
2023-03-11T09:16:22.820Z,4.90
2023-03-11T09:18:50.782Z,4.20
2023-03-11T09:21:18.710Z,5.65
2023-03-11T09:23:46.650Z,3.85
2023-03-11T09:26:16.014Z,7.57
2023-03-11T09:28:48.724Z,17.48
2023-03-11T09:31:16.789Z,19.60
2023-03-11T09:33:44.992Z,34.15
2023-03-11T09:36:13.673Z,42.03
2023-03-11T09:38:41.691Z,58.40
2023-03-11T09:41:11.191Z,52.67
2023-03-11T09:43:52.348Z,47.00
2023-03-11T09:46:46.336Z,67.05
2023-03-11T09:49:18.590Z,46.20
2023-03-11T09:51:49.134Z,47.28
2023-03-11T09:54:17.031Z,39.92
2023-03-11T09:56:44.957Z,42.83
2023-03-11T09:59:18.089Z,47.20
2023-03-11T10:01:46.437Z,33.17
2023-03-11T10:04:15.694Z,35.78
2023-03-11T10:06:43.908Z,46.33
2023-03-11T10:09:28.935Z,37.40
2023-03-11T10:12:14.781Z,28.67
2023-03-11T10:14:49.827Z,31.50
2023-03-11T10:17:23.936Z,30.77
2023-03-11T10:19:53.559Z,34.35
2023-03-11T10:22:24.421Z,26.50
2023-03-11T10:25:01.524Z,26.00
2023-03-11T10:27:32.807Z,23.17
2023-03-11T10:30:05.618Z,26.85
2023-03-11T10:32:38.164Z,25.27
2023-03-11T10:35:08.246Z,24.75
2023-03-11T10:37:48.726Z,25.33
2023-03-11T10:40:22.600Z,21.80
2023-03-11T10:42:51.620Z,19.35
2023-03-11T10:45:23.341Z,20.25
2023-03-11T10:47:51.340Z,19.83
2023-03-11T10:50:20.366Z,22.80
2023-03-11T10:53:06.898Z,24.00
2023-03-11T10:55:34.769Z,19.95
2023-03-11T10:58:07.093Z,14.60
2023-03-11T11:00:36.454Z,22.20
2023-03-11T11:03:06.658Z,22.35
2023-03-11T11:05:35.240Z,18.00
2023-03-11T11:08:08.118Z,39.33
2023-03-11T11:10:36.512Z,75.18
2023-03-11T11:13:17.735Z,71.82
2023-03-11T11:15:55.456Z,86.63
2023-03-11T11:18:24.388Z,76.80
2023-03-11T11:20:56.055Z,68.57
2023-03-11T11:23:27.899Z,72.10
2023-03-11T11:25:59.634Z,83.30
2023-03-11T11:28:28.535Z,75.57
2023-03-11T11:30:58.838Z,61.67
2023-03-11T11:33:28.610Z,54.22
2023-03-11T11:35:57.433Z,64.38
2023-03-11T11:38:25.978Z,62.35
2023-03-11T11:40:54.770Z,53.83
2023-03-11T11:43:25.994Z,69.00
2023-03-11T11:45:58.105Z,59.80
2023-03-11T11:48:28.057Z,59.28
2023-03-11T11:50:57.978Z,53.88
2023-03-11T11:53:29.586Z,60.03
2023-03-11T11:55:57.462Z,49.85
2023-03-11T11:58:25.443Z,39.83
2023-03-11T12:01:05.697Z,49.42
2023-03-11T12:03:57.996Z,48.08
2023-03-11T12:06:28.317Z,46.20
2023-03-11T12:09:05.515Z,43.67
2023-03-11T12:11:37.192Z,40.38
2023-03-11T12:14:06.894Z,41.20
2023-03-11T12:16:42.566Z,38.45
2023-03-11T12:19:20.433Z,40.05
2023-03-11T12:22:08.326Z,39.17
2023-03-11T12:24:46.590Z,37.97
2023-03-11T12:27:17.459Z,43.58
2023-03-11T12:29:45.760Z,38.85
2023-03-11T12:32:17.805Z,34.78
2023-03-11T12:34:47.315Z,32.13
2023-03-11T12:37:19.311Z,30.05
2023-03-11T12:39:47.226Z,29.10
2023-03-11T12:42:19.588Z,30.85
2023-03-11T12:44:47.984Z,26.88
2023-03-11T12:47:28.757Z,29.77
2023-03-11T12:49:57.343Z,31.85
2023-03-11T12:52:27.574Z,28.92
2023-03-11T12:55:31.514Z,25.55
2023-03-11T12:58:23.773Z,22.73
2023-03-11T13:00:59.755Z,27.80
2023-03-11T13:03:39.806Z,19.83
2023-03-11T13:06:17.141Z,22.15
2023-03-11T13:08:46.595Z,19.83
2023-03-11T13:11:37.830Z,20.20
2023-03-11T13:14:33.672Z,21.45
2023-03-11T13:17:24.632Z,18.75
2023-03-11T13:19:55.362Z,19.17
2023-03-11T13:22:43.351Z,15.30
2023-03-11T13:25:28.003Z,19.50
2023-03-11T13:27:57.091Z,18.05
2023-03-11T13:30:25.942Z,17.52
2023-03-11T13:33:15.070Z,16.42
2023-03-11T13:35:51.713Z,16.25
2023-03-11T13:38:34.894Z,17.52
2023-03-11T13:41:03.125Z,19.65
2023-03-11T13:43:31.150Z,18.00
2023-03-11T13:46:01.015Z,15.45
2023-03-11T13:48:30.787Z,12.05
2023-03-11T13:51:01.586Z,10.23
2023-03-11T13:53:30.957Z,12.35
2023-03-11T13:55:58.943Z,14.55
2023-03-11T13:58:27.648Z,17.15
2023-03-11T14:00:56.226Z,21.73
2023-03-11T14:03:25.585Z,16.98
2023-03-11T14:05:58.376Z,15.32
2023-03-11T14:08:28.928Z,19.98
2023-03-11T14:10:57.280Z,19.88
2023-03-11T14:13:28.807Z,15.20
2023-03-11T14:16:00.512Z,11.90
2023-03-11T14:18:46.477Z,16.50
2023-03-11T14:21:15.283Z,11.70
2023-03-11T14:23:45.517Z,14.32
2023-03-11T14:26:18.528Z,15.18
2023-03-11T14:28:47.775Z,14.50
2023-03-11T14:31:30.378Z,17.52
2023-03-11T14:34:04.095Z,9.95
2023-03-11T14:36:33.397Z,12.43
2023-03-11T14:39:02.631Z,15.68
2023-03-11T14:41:30.520Z,10.05
2023-03-11T14:43:58.408Z,12.77
2023-03-11T14:46:28.088Z,14.38
2023-03-11T14:48:56.085Z,15.65
2023-03-11T14:51:25.168Z,12.02
2023-03-11T14:53:55.551Z,10.38
2023-03-11T14:56:25.275Z,8.50
2023-03-11T14:59:06.706Z,11.95
2023-03-11T15:01:36.160Z,10.60
2023-03-11T15:04:06.776Z,8.65
2023-03-11T15:06:34.634Z,9.43
2023-03-11T15:09:04.345Z,13.40
2023-03-11T15:11:45.144Z,11.65
2023-03-11T15:14:19.386Z,11.35
2023-03-11T15:16:47.345Z,9.73
2023-03-11T15:19:39.084Z,9.27
2023-03-11T15:22:18.218Z,7.57
2023-03-11T15:24:50.874Z,10.15
2023-03-11T15:27:31.006Z,8.25
2023-03-11T15:29:58.942Z,8.10
2023-03-11T15:32:37.296Z,9.77
2023-03-11T15:35:14.187Z,9.80
2023-03-11T15:37:42.480Z,8.88
2023-03-11T15:40:13.256Z,7.78
2023-03-11T15:42:42.505Z,10.73
2023-03-11T15:45:13.299Z,9.10
2023-03-11T15:47:41.185Z,7.40
2023-03-11T15:50:24.986Z,10.35
2023-03-11T15:52:54.722Z,7.72
2023-03-11T15:55:22.727Z,7.68
2023-03-11T15:57:52.231Z,6.03
2023-03-11T16:00:22.173Z,9.20
2023-03-11T16:02:50.310Z,7.25
2023-03-11T16:05:19.081Z,9.88
2023-03-11T16:07:47.160Z,9.32
2023-03-11T16:10:15.965Z,7.25
2023-03-11T16:12:43.865Z,6.85
2023-03-11T16:15:20.388Z,5.40
2023-03-11T16:17:50.380Z,6.35
2023-03-11T16:20:18.693Z,6.03
2023-03-11T16:22:46.696Z,8.93
2023-03-11T16:25:19.368Z,7.93
2023-03-11T16:27:47.253Z,7.47
2023-03-11T16:30:17.050Z,6.50
2023-03-11T16:32:44.998Z,4.63
2023-03-11T16:35:12.994Z,6.15
2023-03-11T16:37:42.703Z,6.57
2023-03-11T16:40:13.555Z,5.03
2023-03-11T16:42:41.526Z,5.20
2023-03-11T16:45:09.762Z,6.60
2023-03-11T16:47:39.021Z,6.03
2023-03-11T16:50:08.140Z,4.57
2023-03-11T16:52:36.087Z,5.30
2023-03-11T16:55:04.294Z,5.93
2023-03-11T16:57:32.174Z,8.27
2023-03-11T17:00:00.222Z,5.70
2023-03-11T17:02:28.209Z,6.10
2023-03-11T17:04:57.643Z,7.28
2023-03-11T17:07:25.658Z,4.90
2023-03-11T17:09:53.579Z,6.13
2023-03-11T17:12:23.080Z,4.88
2023-03-11T17:14:50.991Z,5.20
2023-03-11T17:17:19.017Z,5.18
2023-03-11T17:19:47.153Z,4.93
2023-03-11T17:22:16.544Z,4.65
2023-03-11T17:24:44.410Z,5.57
2023-03-11T17:27:12.341Z,4.70
2023-03-11T17:29:40.248Z,4.85
2023-03-11T17:32:08.886Z,5.10
2023-03-11T17:34:36.940Z,6.55
2023-03-11T17:37:04.910Z,5.70
2023-03-11T17:39:34.195Z,6.75
2023-03-11T17:42:02.099Z,6.88
2023-03-11T17:44:35.395Z,7.40
2023-03-11T17:47:09.011Z,4.75
2023-03-11T17:49:36.909Z,8.00
2023-03-11T17:52:05.199Z,5.50
2023-03-11T17:54:34.432Z,5.25
2023-03-11T17:57:02.314Z,6.47
2023-03-11T17:59:30.188Z,5.25
2023-03-11T18:01:58.169Z,10.07
2023-03-11T18:04:26.154Z,4.13
2023-03-11T18:06:54.856Z,6.45
2023-03-11T18:09:22.843Z,6.70
2023-03-11T18:11:52.130Z,5.13
2023-03-11T18:14:20.023Z,5.68
2023-03-11T18:16:47.962Z,5.82
2023-03-11T18:19:15.902Z,5.57
2023-03-11T18:21:44.419Z,5.47
2023-03-11T18:24:12.369Z,5.00
2023-03-11T18:26:40.262Z,5.85
2023-03-11T18:29:09.554Z,5.97
2023-03-11T18:31:38.764Z,7.45
2023-03-11T18:34:12.150Z,6.90
2023-03-11T18:36:40.697Z,9.73
2023-03-11T18:39:11.196Z,7.65
2023-03-11T18:41:39.116Z,6.45
2023-03-11T18:44:07.169Z,7.55
2023-03-11T18:46:36.425Z,10.48
2023-03-11T18:49:04.467Z,7.40
2023-03-11T18:51:32.770Z,9.05
2023-03-11T18:54:00.806Z,12.43
2023-03-11T18:56:30.936Z,14.95
2023-03-11T18:58:58.952Z,5.47
2023-03-11T19:01:27.270Z,11.30
2023-03-11T19:03:57.111Z,12.18
2023-03-11T19:06:25.457Z,9.65
2023-03-11T19:08:53.744Z,14.43
2023-03-11T19:11:22.291Z,12.88
2023-03-11T19:13:50.267Z,12.70
2023-03-11T19:16:19.302Z,13.13
2023-03-11T19:18:47.424Z,12.75
2023-03-11T19:21:16.990Z,12.82
2023-03-11T19:23:45.326Z,15.32
2023-03-11T19:26:13.527Z,14.50
2023-03-11T19:28:42.035Z,12.43
2023-03-11T19:31:10.069Z,15.60
2023-03-11T19:33:37.980Z,18.63
2023-03-11T19:36:07.119Z,15.57
2023-03-11T19:38:36.425Z,15.68
2023-03-11T19:41:05.297Z,16.02
2023-03-11T19:43:35.505Z,14.98
2023-03-11T19:46:03.558Z,14.65
2023-03-11T19:48:31.619Z,17.17
2023-03-11T19:50:59.630Z,23.92
2023-03-11T19:53:27.826Z,17.58
2023-03-11T19:55:57.868Z,16.17
2023-03-11T19:58:29.915Z,16.98
2023-03-11T20:00:58.590Z,21.00
2023-03-11T20:03:26.538Z,16.42
2023-03-11T20:05:56.678Z,19.17
2023-03-11T20:08:25.256Z,18.92
2023-03-11T20:10:53.476Z,15.18
2023-03-11T20:13:22.948Z,18.55
2023-03-11T20:15:50.992Z,16.88
2023-03-11T20:18:19.075Z,18.33
2023-03-11T20:20:47.179Z,21.20
2023-03-11T20:23:15.124Z,17.15
2023-03-11T20:25:43.110Z,14.65
2023-03-11T20:28:11.151Z,16.02
2023-03-11T20:30:40.516Z,17.98
2023-03-11T20:33:08.716Z,17.45
2023-03-11T20:35:36.773Z,18.17
2023-03-11T20:38:04.761Z,16.85
2023-03-11T20:40:32.821Z,18.08
2023-03-11T20:43:00.961Z,20.55
2023-03-11T20:45:28.890Z,18.30
2023-03-11T20:47:58.233Z,19.65
2023-03-11T20:50:26.269Z,19.48
2023-03-11T20:52:54.412Z,20.80
2023-03-11T20:55:22.936Z,17.42
2023-03-11T20:57:51.272Z,27.38
2023-03-11T21:00:20.471Z,20.25
2023-03-11T21:02:48.541Z,16.65
2023-03-11T21:05:18.012Z,18.92
2023-03-11T21:07:46.020Z,17.52
2023-03-11T21:10:14.290Z,16.10
2023-03-11T21:12:42.184Z,13.00
2023-03-11T21:15:11.292Z,15.25
2023-03-11T21:17:39.245Z,17.85
2023-03-11T21:20:08.882Z,16.17
2023-03-11T21:22:38.189Z,18.17
2023-03-11T21:25:08.612Z,19.95
2023-03-11T21:27:36.767Z,10.63
2023-03-11T21:30:05.121Z,11.23
2023-03-11T21:32:33.295Z,14.63
2023-03-11T21:35:01.812Z,14.27
2023-03-11T21:37:30.002Z,12.40
2023-03-11T21:39:59.629Z,12.23
2023-03-11T21:42:29.941Z,10.52
2023-03-11T21:44:58.179Z,13.30
2023-03-11T21:47:26.120Z,20.27
2023-03-11T21:49:54.148Z,18.55
2023-03-11T21:52:22.123Z,11.13
2023-03-11T21:54:50.241Z,12.88
2023-03-11T21:57:19.509Z,11.25
2023-03-11T21:59:47.788Z,15.38
2023-03-11T22:02:16.174Z,13.25
2023-03-11T22:04:44.442Z,14.93
2023-03-11T22:07:12.538Z,12.07
2023-03-11T22:09:40.442Z,20.55
2023-03-11T22:12:08.634Z,27.05
2023-03-11T22:14:38.025Z,24.20
2023-03-11T22:17:06.147Z,27.42
2023-03-11T22:19:34.187Z,24.17
2023-03-11T22:22:02.264Z,21.75
2023-03-11T22:24:30.210Z,27.98
2023-03-11T22:26:58.101Z,18.45
2023-03-11T22:29:26.017Z,24.63
2023-03-11T22:31:55.375Z,18.17
2023-03-11T22:34:23.300Z,26.00
2023-03-11T22:36:51.176Z,21.05
2023-03-11T22:39:19.068Z,24.30
2023-03-11T22:41:46.994Z,18.52
2023-03-11T22:44:14.873Z,19.23
2023-03-11T22:46:42.762Z,23.98
2023-03-11T22:49:11.974Z,22.00
2023-03-11T22:51:39.868Z,19.98
2023-03-11T22:54:07.785Z,22.13
2023-03-11T22:56:35.835Z,17.63
2023-03-11T22:59:03.748Z,19.10
2023-03-11T23:01:32.892Z,19.38
2023-03-11T23:04:01.048Z,22.33
2023-03-11T23:06:30.463Z,16.38
2023-03-11T23:08:58.366Z,18.50
2023-03-11T23:11:26.245Z,16.42
2023-03-11T23:13:54.114Z,17.73
2023-03-11T23:16:22.857Z,15.20
2023-03-11T23:18:52.129Z,16.30
2023-03-11T23:21:21.295Z,12.50
2023-03-11T23:23:50.617Z,11.48
2023-03-11T23:26:18.587Z,12.55
2023-03-11T23:28:46.581Z,15.63
2023-03-11T23:31:15.163Z,17.33
2023-03-11T23:33:43.362Z,13.30
2023-03-11T23:36:12.747Z,18.42
2023-03-11T23:38:40.695Z,13.13
2023-03-11T23:41:10.549Z,20.38
2023-03-11T23:43:38.511Z,10.27
2023-03-11T23:46:06.465Z,16.77
2023-03-11T23:48:34.466Z,13.88
2023-03-11T23:51:02.614Z,13.50
2023-03-11T23:53:31.803Z,13.07
2023-03-11T23:55:59.677Z,14.15
2023-03-11T23:58:29.645Z,12.23
